Time;durP1;ratioP1;P1;durP2;ratioP2;P2;SDS_P1;SDS_P2;PMS_P1;PMS_P2;Temp;Humidity;BMP_temperature;BMP_pressure;BME280_temperature;BME280_humidity;BME280_pressure;Samples;Min_cycle;Max_cycle;Signal;HPM_P1;HPM_P2
2021/01/30 00:01:15;;;;;;;3.87;3.58;;;;;;;19.81;37.41;97710.16;1735001;79;21178;-9
2021/01/30 00:03:46;;;;;;;3.85;3.45;;;;;;;19.81;37.39;97707.48;1765621;79;21203;-8
2021/01/30 00:06:14;;;;;;;4.80;3.85;;;;;;;19.81;37.38;97714.16;1787540;79;21133;-9
2021/01/30 00:08:42;;;;;;;4.72;3.58;;;;;;;19.80;37.39;97726.67;1775871;79;21193;-9
2021/01/30 00:11:12;;;;;;;4.05;3.70;;;;;;;19.81;37.39;97726.17;1775993;78;21202;-9
2021/01/30 00:13:42;;;;;;;4.03;3.58;;;;;;;19.80;37.42;97721.81;1768899;79;22274;-9
2021/01/30 00:16:15;;;;;;;3.40;3.20;;;;;;;19.81;37.41;97726.17;1775810;78;21572;-9
2021/01/30 00:18:43;;;;;;;4.28;3.87;;;;;;;19.81;37.42;97739.52;1768708;79;21612;-10
2021/01/30 00:21:11;;;;;;;3.80;3.50;;;;;;;19.81;37.39;97746.19;1798267;78;22276;-9
2021/01/30 00:23:42;;;;;;;4.28;3.87;;;;;;;19.81;37.43;97742.18;1754658;78;21599;-10
2021/01/30 00:26:10;;;;;;;4.12;3.72;;;;;;;19.80;37.42;97747.16;1758460;78;21727;-10
2021/01/30 00:28:38;;;;;;;3.60;3.30;;;;;;;19.80;37.42;97749.36;1748468;79;21143;-9
2021/01/30 00:31:06;;;;;;;4.10;3.70;;;;;;;19.80;37.42;97745.83;1765493;79;21163;-10
2021/01/30 00:33:34;;;;;;;3.67;3.37;;;;;;;19.80;37.42;97751.17;1754409;79;21145;-10
2021/01/30 00:36:12;;;;;;;3.50;3.20;;;;;;;19.79;37.42;97742.84;1742893;80;21191;-10
2021/01/30 00:38:41;;;;;;;3.95;3.58;;;;;;;19.78;37.43;97747.83;1753929;79;21168;-10
2021/01/30 00:41:09;;;;;;;3.62;3.33;;;;;;;19.79;37.44;97748.17;1738410;80;21128;-10
2021/01/30 00:43:37;;;;;;;4.15;3.60;;;;;;;19.78;37.44;97748.66;1763545;79;21184;-10
2021/01/30 00:46:06;;;;;;;5.42;3.67;;;;;;;19.78;37.47;97753.16;1738619;80;21643;-10
2021/01/30 00:48:35;;;;;;;3.35;3.15;;;;;;;19.78;37.46;97753.16;1785534;79;21140;-10
2021/01/30 00:51:04;;;;;;;6.75;3.92;;;;;;;19.77;37.46;97756.81;1794310;77;22135;-10
2021/01/30 01:05:39;;;;;;;4.20;3.80;;;;;;;19.75;37.48;97760.13;1790326;77;21203;-9
2021/01/30 01:08:06;;;;;;;3.90;3.60;;;;;;;19.74;37.48;97770.45;1785125;79;21164;-10
2021/01/30 01:10:35;;;;;;;4.00;3.70;;;;;;;19.73;37.54;97760.77;1772614;79;21179;-9
2021/01/30 01:13:04;;;;;;;3.77;3.47;;;;;;;19.73;37.55;97766.09;1773924;79;21148;-9
2021/01/30 01:15:35;;;;;;;3.52;3.22;;;;;;;19.73;37.55;97771.44;1746112;79;21149;-9
2021/01/30 01:18:03;;;;;;;4.17;3.77;;;;;;;19.72;37.55;97787.09;1763722;79;21184;-9
2021/01/30 01:20:31;;;;;;;4.60;3.77;;;;;;;19.71;37.55;97781.43;1779275;80;21524;-9
2021/01/30 01:23:00;;;;;;;3.52;3.30;;;;;;;19.72;37.54;97780.42;1785404;78;21203;-9
2021/01/30 01:25:28;;;;;;;3.47;3.22;;;;;;;19.73;37.54;97785.61;1760097;79;21141;-9
2021/01/30 01:27:56;;;;;;;3.52;3.22;;;;;;;19.73;37.54;97776.77;1751014;79;21183;-9
2021/01/30 01:30:24;;;;;;;3.55;3.30;;;;;;;19.73;37.54;97790.11;1763213;80;21224;-9
2021/01/30 01:32:54;;;;;;;3.80;3.47;;;;;;;19.73;37.52;97782.11;1732050;80;22186;-9
2021/01/30 01:35:27;;;;;;;3.62;3.30;;;;;;;19.74;37.53;97793.14;1764351;79;21479;-9
2021/01/30 01:37:55;;;;;;;3.80;3.50;;;;;;;19.74;37.53;97785.13;1774728;79;21156;-10
2021/01/30 01:40:28;;;;;;;3.75;3.42;;;;;;;19.74;37.50;97789.96;1749442;79;21275;-9
2021/01/30 01:43:14;;;;;;;3.90;3.55;;;;;;;19.78;37.52;97782.01;1808476;77;22271;-9
2021/01/30 01:45:43;;;;;;;4.05;3.65;;;;;;;19.73;37.50;97790.11;1775645;79;21154;-9
2021/01/30 01:48:20;;;;;;;4.08;3.67;;;;;;;19.73;37.53;97787.44;1726442;80;22219;-9
2021/01/30 01:50:49;;;;;;;3.75;3.45;;;;;;;19.73;37.53;97785.61;1752974;79;21134;-9
2021/01/30 01:53:28;;;;;;;4.03;3.58;;;;;;;19.72;37.54;97788.42;1785115;80;21738;-9
2021/01/30 01:56:03;;;;;;;4.47;3.70;;;;;;;19.72;37.53;97791.09;1760340;78;21186;-9
2021/01/30 01:58:33;;;;;;;4.28;3.80;;;;;;;19.73;37.53;97796.78;1785453;80;21166;-10
2021/01/30 02:01:01;;;;;;;4.03;3.65;;;;;;;19.73;37.54;97794.12;1771664;79;21204;-10
2021/01/30 02:03:32;;;;;;;4.05;3.47;;;;;;;19.72;37.55;97789.76;1766961;80;21647;-10
2021/01/30 02:06:01;;;;;;;3.75;3.45;;;;;;;19.71;37.56;97789.44;1731428;79;21785;-9
2021/01/30 02:08:29;;;;;;;3.75;3.30;;;;;;;19.70;37.56;97787.23;1787844;79;21575;-10
2021/01/30 02:10:58;;;;;;;3.58;3.27;;;;;;;19.70;37.57;97788.57;1757293;80;21150;-10
2021/01/30 02:13:34;;;;;;;3.83;3.42;;;;;;;19.70;37.57;97791.24;1755274;79;21149;-10
2021/01/30 02:16:33;;;;;;;3.87;3.47;;;;;;;19.68;37.57;97786.05;1759189;80;21173;-10
2021/01/30 02:19:46;;;;;;;3.98;3.55;;;;;;;19.67;37.59;97780.39;1754179;80;21108;-10
2021/01/30 02:22:39;;;;;;;3.55;3.25;;;;;;;19.67;37.60;97780.39;1703574;80;22273;-10
2021/01/30 02:25:50;;;;;;;3.58;3.27;;;;;;;19.66;37.63;97784.05;1786971;77;21185;-10
2021/01/30 02:28:32;;;;;;;3.62;3.33;;;;;;;19.65;37.62;97775.72;1759211;80;21217;-9
2021/01/30 02:31:32;;;;;;;3.30;3.00;;;;;;;19.64;37.63;97762.53;1758307;80;21225;-10
2021/01/30 02:34:36;;;;;;;4.70;3.42;;;;;;;19.63;37.66;97755.00;1756497;80;21193;-10
2021/01/30 02:37:20;;;;;;;3.70;3.27;;;;;;;19.61;37.67;97769.00;1753605;79;21190;-9
2021/01/30 02:39:57;;;;;;;4.78;3.60;;;;;;;19.60;37.70;97766.00;1769587;80;21233;-9
2021/01/30 02:42:42;;;;;;;3.98;3.60;;;;;;;19.59;37.73;97767.48;1759143;80;21198;-9
2021/01/30 02:45:18;;;;;;;3.62;3.33;;;;;;;19.58;37.77;97767.13;1761177;80;21181;-9
2021/01/30 02:47:56;;;;;;;3.80;3.50;;;;;;;19.57;37.78;97748.10;1783105;80;21581;-9
2021/01/30 02:50:28;;;;;;;3.80;3.50;;;;;;;19.56;37.77;97744.61;1743519;81;21133;-9
2021/01/30 02:52:59;;;;;;;3.40;3.20;;;;;;;19.56;37.80;97748.61;1748904;82;21189;-9
2021/01/30 02:55:26;;;;;;;3.80;3.50;;;;;;;19.55;37.80;97756.28;1734396;80;21185;-9
2021/01/30 02:57:54;;;;;;;3.62;3.30;;;;;;;19.55;37.82;97764.29;1753028;80;21138;-9
2021/01/30 03:00:24;;;;;;;3.50;3.20;;;;;;;19.54;37.84;97759.94;1740853;80;21162;-9
2021/01/30 03:02:53;;;;;;;3.42;3.10;;;;;;;19.55;37.81;97756.77;1767739;79;21192;-9
2021/01/30 03:05:20;;;;;;;3.65;3.35;;;;;;;19.53;37.84;97758.25;1722228;81;21152;-9
2021/01/30 03:08:02;;;;;;;3.67;3.37;;;;;;;19.54;37.84;97758.60;1727155;80;21197;-9
2021/01/30 03:10:38;;;;;;;3.50;3.20;;;;;;;19.54;37.83;97760.44;1753727;80;21242;-9
2021/01/30 03:13:23;;;;;;;3.40;3.10;;;;;;;19.54;37.84;97754.60;1705454;81;21160;-9
2021/01/30 03:16:02;;;;;;;3.75;3.30;;;;;;;19.54;37.83;97758.60;1750442;80;21124;-9
2021/01/30 03:18:38;;;;;;;3.52;3.20;;;;;;;19.53;37.84;97755.58;1750390;80;21182;-9
2021/01/30 03:21:07;;;;;;;3.65;3.35;;;;;;;19.54;37.84;97753.77;1740981;80;21178;-9
2021/01/30 03:23:35;;;;;;;3.90;3.60;;;;;;;19.53;37.85;97750.24;1755643;80;21901;-9
2021/01/30 03:26:06;;;;;;;3.80;3.50;;;;;;;19.53;37.84;97746.75;1736634;81;21136;-9
2021/01/30 03:28:33;;;;;;;3.87;3.55;;;;;;;19.54;37.86;97745.77;1753676;79;21078;-9
2021/01/30 03:31:01;;;;;;;3.50;3.20;;;;;;;19.53;37.83;97742.24;1755388;81;21663;-9
2021/01/30 03:33:28;;;;;;;3.47;3.27;;;;;;;19.52;37.84;97740.58;1743943;80;21154;-9
2021/01/30 03:35:56;;;;;;;3.62;3.33;;;;;;;19.52;37.85;97737.92;1748776;82;21213;-9
2021/01/30 03:38:23;;;;;;;4.25;3.85;;;;;;;19.52;37.87;97739.73;1745832;80;21237;-9
2021/01/30 03:40:51;;;;;;;3.70;3.40;;;;;;;19.52;37.86;97740.58;1722228;79;21181;-9
2021/01/30 03:43:18;;;;;;;3.50;3.20;;;;;;;19.52;37.85;97739.73;1762682;79;21137;-9
2021/01/30 03:45:46;;;;;;;3.27;2.98;;;;;;;19.52;37.85;97731.72;1758143;80;22135;-9
2021/01/30 03:48:14;;;;;;;3.80;3.40;;;;;;;19.50;37.87;97735.88;1757523;80;21118;-9
2021/01/30 03:50:42;;;;;;;3.37;3.08;;;;;;;19.51;37.89;97734.06;1768044;80;21121;-10
2021/01/30 03:53:09;;;;;;;3.60;3.30;;;;;;;19.49;37.88;97733.72;1763430;80;21638;-9
2021/01/30 03:55:42;;;;;;;3.85;3.30;;;;;;;19.50;37.88;97747.88;1769832;78;21189;-9
2021/01/30 03:58:09;;;;;;;3.83;3.52;;;;;;;19.50;37.89;97746.55;1738864;81;21186;-9
2021/01/30 04:00:37;;;;;;;3.33;3.10;;;;;;;19.49;37.89;97738.22;1759133;80;21509;-9
2021/01/30 04:03:04;;;;;;;4.00;3.70;;;;;;;19.49;37.87;97739.05;1772936;80;21141;-9
2021/01/30 04:05:32;;;;;;;3.33;3.10;;;;;;;19.48;37.89;97748.06;1764987;80;21201;-9
2021/01/30 04:08:00;;;;;;;3.25;2.98;;;;;;;19.48;37.90;97745.86;1767426;79;21152;-9
2021/01/30 04:10:34;;;;;;;3.52;3.22;;;;;;;19.47;37.90;97742.88;1767339;80;21192;-9
2021/01/30 04:13:08;;;;;;;3.95;3.25;;;;;;;19.47;37.93;97745.04;1738847;81;21579;-9
2021/01/30 04:15:40;;;;;;;3.40;3.10;;;;;;;19.47;37.93;97745.04;1733944;80;21173;-9
2021/01/30 04:18:08;;;;;;;3.77;3.40;;;;;;;19.47;37.91;97736.20;1769363;80;21153;-9
2021/01/30 04:20:35;;;;;;;3.22;2.92;;;;;;;19.46;37.94;97731.34;1766886;80;21163;-9
2021/01/30 04:23:05;;;;;;;5.35;3.65;;;;;;;19.47;37.92;97732.20;1738087;80;21999;-9
2021/01/30 04:25:32;;;;;;;4.10;3.45;;;;;;;19.46;37.94;97728.68;1763277;80;21219;-9
2021/01/30 04:27:59;;;;;;;3.92;3.60;;;;;;;19.47;37.95;97734.88;1736990;81;21197;-9
2021/01/30 04:30:30;;;;;;;3.47;3.17;;;;;;;19.46;37.92;97742.02;1782615;78;21147;-9
2021/01/30 04:32:59;;;;;;;3.25;2.95;;;;;;;19.46;37.92;97745.19;1745431;80;21180;-9
2021/01/30 04:35:36;;;;;;;3.60;3.30;;;;;;;19.45;37.96;97744.36;1716320;82;22190;-9
2021/01/30 04:38:04;;;;;;;4.10;3.33;;;;;;;19.45;37.97;97747.50;1781400;78;21572;-9
2021/01/30 04:40:39;;;;;;;4.03;3.60;;;;;;;19.45;37.95;97753.70;1727754;80;21544;-9
2021/01/30 04:43:31;;;;;;;3.33;3.00;;;;;;;19.45;37.95;97747.50;1718900;81;21197;-9
2021/01/30 04:46:17;;;;;;;3.77;3.45;;;;;;;19.46;37.94;97749.19;1728543;82;21142;-9
2021/01/30 04:49:12;;;;;;;3.40;3.20;;;;;;;19.45;37.95;97756.36;1722163;81;21136;-9
2021/01/30 04:51:51;;;;;;;3.30;3.10;;;;;;;19.45;37.96;97752.83;1701916;81;21209;-10
2021/01/30 04:54:47;;;;;;;3.35;3.05;;;;;;;19.44;37.96;97759.17;1762258;80;21130;-10
2021/01/30 04:57:46;;;;;;;3.87;3.50;;;;;;;19.43;37.97;97760.16;1731934;80;21221;-10
2021/01/30 05:00:37;;;;;;;3.35;3.15;;;;;;;19.44;37.97;97757.84;1756629;81;21157;-10
2021/01/30 05:03:33;;;;;;;3.75;3.40;;;;;;;19.42;37.99;97749.16;1736034;80;22218;-10
2021/01/30 05:06:16;;;;;;;3.65;3.35;;;;;;;19.41;37.99;97736.81;1756043;81;21224;-9
2021/01/30 05:08:59;;;;;;;3.40;3.12;;;;;;;19.42;37.99;97741.16;1720870;80;21122;-9
2021/01/30 05:11:28;;;;;;;3.55;3.20;;;;;;;19.42;38.01;97745.16;1712453;81;21169;-10
2021/01/30 05:14:10;;;;;;;3.37;3.08;;;;;;;19.41;38.01;97744.81;1751610;80;21157;-9
2021/01/30 05:16:43;;;;;;;3.72;3.35;;;;;;;19.41;38.00;97743.47;1736873;80;21647;-9
2021/01/30 05:19:12;;;;;;;4.72;3.08;;;;;;;19.39;38.01;97748.95;1754664;81;21635;-9
2021/01/30 05:21:53;;;;;;;3.37;3.02;;;;;;;19.41;38.00;97746.14;1752623;80;21616;-9
2021/01/30 05:24:25;;;;;;;3.60;3.30;;;;;;;19.40;38.04;97745.79;1701918;80;21146;-9
2021/01/30 05:27:19;;;;;;;3.10;2.90;;;;;;;19.40;38.02;97753.79;1726596;81;21098;-9
2021/01/30 05:30:17;;;;;;;3.60;3.30;;;;;;;19.41;38.01;97756.30;1759099;80;21172;-10
2021/01/30 05:33:09;;;;;;;3.45;3.15;;;;;;;19.42;38.00;97763.84;1736070;81;21107;-9
2021/01/30 05:35:58;;;;;;;4.12;3.50;;;;;;;19.42;37.99;97766.00;1736333;80;21201;-9
2021/01/30 05:38:45;;;;;;;3.87;3.50;;;;;;;19.41;38.00;97763.48;1754115;80;21722;-9
2021/01/30 05:41:51;;;;;;;3.70;3.40;;;;;;;19.45;37.99;97755.50;1750231;79;23406;-9
2021/01/30 05:44:33;;;;;;;3.17;2.92;;;;;;;19.42;37.99;97759.83;1698954;81;21170;-8
2021/01/30 05:47:00;;;;;;;3.60;3.30;;;;;;;19.43;38.00;97752.16;1722719;80;22289;-9
2021/01/30 05:49:31;;;;;;;3.52;3.25;;;;;;;19.42;37.96;97761.16;1725832;81;21206;-8
2021/01/30 05:52:10;;;;;;;3.45;3.15;;;;;;;19.43;37.96;97768.16;1727215;81;21131;-9
2021/01/30 05:54:37;;;;;;;3.80;3.25;;;;;;;19.43;37.96;97774.83;1696665;81;21180;-9
2021/01/30 05:57:05;;;;;;;3.37;3.17;;;;;;;19.44;37.95;97775.18;1728830;79;21145;-9
2021/01/30 05:59:32;;;;;;;3.75;3.45;;;;;;;19.44;37.96;97780.52;1747033;81;22117;-9
2021/01/30 06:02:21;;;;;;;3.52;3.22;;;;;;;19.46;37.92;97778.53;1723558;82;21633;-11
2021/01/30 06:04:49;;;;;;;4.50;3.62;;;;;;;19.47;37.89;97777.55;1736316;81;21156;-11
2021/01/30 06:07:29;;;;;;;3.40;3.10;;;;;;;19.48;37.89;97779.20;1693275;80;21612;-10
2021/01/30 06:09:56;;;;;;;3.60;3.30;;;;;;;19.49;37.86;97779.56;1699876;81;21188;-11
2021/01/30 06:12:32;;;;;;;3.77;3.45;;;;;;;19.51;37.83;97778.08;1716798;82;22997;-10
2021/01/30 06:15:18;;;;;;;3.60;3.30;;;;;;;19.51;37.80;97778.91;1688304;82;21606;-11
2021/01/30 06:17:45;;;;;;;3.70;3.40;;;;;;;19.52;37.80;97783.27;1713792;82;21211;-11
2021/01/30 06:20:24;;;;;;;3.58;3.30;;;;;;;19.55;37.79;97794.97;1734284;81;21247;-10
2021/01/30 06:23:08;;;;;;;3.75;3.45;;;;;;;19.56;37.71;97788.63;1683717;82;21231;-10
2021/01/30 06:25:44;;;;;;;3.42;3.15;;;;;;;19.57;37.70;97789.45;1726143;82;22173;-10
2021/01/30 06:28:27;;;;;;;4.22;3.60;;;;;;;19.58;37.71;97785.30;1707682;79;21195;-10
2021/01/30 06:30:57;;;;;;;3.92;3.60;;;;;;;19.59;37.68;97787.50;1684621;82;21199;-11
2021/01/30 06:33:32;;;;;;;3.80;3.40;;;;;;;19.59;37.67;97786.98;1715432;81;21184;-8
2021/01/30 06:36:17;;;;;;;3.27;3.00;;;;;;;19.59;37.64;97781.66;1725331;80;21218;-9
2021/01/30 06:38:58;;;;;;;3.60;3.30;;;;;;;19.61;37.62;97786.84;1776054;79;21167;-9
2021/01/30 06:41:31;;;;;;;3.95;3.55;;;;;;;19.62;37.61;97781.86;1725657;82;21203;-10
2021/01/30 06:44:10;;;;;;;3.65;3.35;;;;;;;19.63;37.60;97779.52;1718054;81;21224;-10
2021/01/30 06:47:03;;;;;;;3.87;3.52;;;;;;;19.63;37.58;97776.34;1743709;81;21103;-8
2021/01/30 06:49:47;;;;;;;3.50;3.27;;;;;;;19.64;37.57;97771.86;1749953;80;21151;-10
2021/01/30 06:52:28;;;;;;;3.65;3.42;;;;;;;19.65;37.52;97761.52;1718918;80;21147;-10
2021/01/30 06:55:09;;;;;;;3.90;3.60;;;;;;;19.66;37.50;97761.37;1712136;82;21588;-10
2021/01/30 06:57:59;;;;;;;4.95;3.35;;;;;;;19.67;37.49;97754.22;1705716;82;21111;-10
2021/01/30 07:00:36;;;;;;;4.05;3.65;;;;;;;19.68;37.47;97756.70;1744925;80;21143;-10
2021/01/30 07:03:31;;;;;;;4.72;3.58;;;;;;;19.70;37.42;97754.39;1735751;80;21163;-10
2021/01/30 07:06:15;;;;;;;4.03;3.52;;;;;;;19.72;37.40;97753.73;1726501;80;21202;-10
2021/01/30 07:08:48;;;;;;;4.17;3.77;;;;;;;19.72;37.39;97749.26;1645958;85;21672;-10
2021/01/30 07:11:26;;;;;;;4.92;3.83;;;;;;;19.75;37.35;97748.12;1679685;84;21369;-10
2021/01/30 07:14:26;;;;;;;4.47;3.58;;;;;;;19.78;37.34;97750.49;1656549;84;21163;-11
2021/01/30 07:17:07;;;;;;;3.70;3.40;;;;;;;19.79;37.30;97750.84;1652232;84;21220;-11
2021/01/30 07:19:47;;;;;;;3.72;3.42;;;;;;;19.81;37.24;97744.34;1725621;82;22381;-9
2021/01/30 07:22:25;;;;;;;3.85;3.55;;;;;;;19.83;37.21;97748.20;1726216;81;21155;-9
2021/01/30 07:25:16;;;;;;;4.22;3.83;;;;;;;19.84;37.18;97748.55;1715523;80;21231;-9
2021/01/30 07:28:04;;;;;;;3.92;3.62;;;;;;;19.86;37.15;97757.23;1723368;80;21142;-9
2021/01/30 07:30:46;;;;;;;3.55;3.25;;;;;;;19.87;37.12;97754.92;1731150;82;21167;-9
2021/01/30 07:33:22;;;;;;;4.17;3.60;;;;;;;19.89;37.09;97758.26;1731212;80;21173;-10
2021/01/30 07:36:13;;;;;;;3.65;3.35;;;;;;;19.91;37.06;97748.27;1715734;82;21163;-9
2021/01/30 07:39:13;;;;;;;3.98;3.65;;;;;;;19.91;37.02;97749.59;1750056;80;21595;-9
2021/01/30 07:41:49;;;;;;;4.33;3.55;;;;;;;19.93;37.00;97751.60;1724751;82;21680;-9
2021/01/30 07:44:31;;;;;;;3.98;3.58;;;;;;;19.93;36.96;97748.94;1725492;82;21202;-9
2021/01/30 07:47:20;;;;;;;3.77;3.45;;;;;;;19.95;36.96;97752.28;1728911;79;21210;-9
2021/01/30 07:49:58;;;;;;;4.25;3.90;;;;;;;19.96;36.93;97755.81;1724716;82;21138;-9
2021/01/30 07:52:44;;;;;;;;;;;;;;;19.97;36.92;97761.47;1725661;80;21182;-9
2021/01/30 07:55:12;;;;;;;3.83;3.52;;;;;;;19.99;36.89;97761.67;1702834;80;20262;-9
2021/01/30 07:58:07;;;;;;;3.92;3.55;;;;;;;19.99;36.87;97767.01;1768015;80;21125;-9
2021/01/30 08:00:59;;;;;;;4.20;3.70;;;;;;;20.00;36.86;97764.66;1742462;80;21171;-9
2021/01/30 08:04:08;;;;;;;3.98;3.58;;;;;;;19.99;36.85;97768.34;1717315;82;21192;-10
2021/01/30 08:07:08;;;;;;;4.20;3.80;;;;;;;20.00;36.88;97772.67;1733839;80;21234;-10
2021/01/30 08:09:47;;;;;;;3.83;3.52;;;;;;;20.01;36.85;97773.02;1716289;81;21199;-10
2021/01/30 08:12:40;;;;;;;6.17;4.28;;;;;;;20.02;36.84;97771.18;1741927;82;21138;-10
2021/01/30 08:15:24;;;;;;;4.22;3.83;;;;;;;20.02;36.83;97773.84;1725434;82;21219;-10
2021/01/30 08:18:09;;;;;;;4.17;3.83;;;;;;;20.03;36.81;97766.19;1721811;82;21601;-10
2021/01/30 08:20:45;;;;;;;4.45;4.05;;;;;;;20.06;36.77;97761.05;1672365;82;21233;-10
2021/01/30 08:23:57;;;;;;;4.42;3.80;;;;;;;20.08;36.74;97763.06;1748247;79;21199;-10
2021/01/30 08:26:50;;;;;;;4.30;3.90;;;;;;;20.09;36.69;97755.38;1725814;80;21193;-10
2021/01/30 08:29:37;;;;;;;4.28;3.87;;;;;;;20.16;36.63;97755.11;1815443;76;21904;-11
2021/01/30 08:32:29;;;;;;;4.75;4.35;;;;;;;20.16;36.62;97757.78;1769988;79;21139;-11
2021/01/30 08:35:25;;;;;;;4.33;3.95;;;;;;;20.18;36.55;97754.45;1726990;78;21894;-10
2021/01/30 08:38:01;;;;;;;4.53;4.12;;;;;;;20.21;36.50;97754.14;1733315;79;21139;-9
2021/01/30 08:41:00;;;;;;;4.05;3.67;;;;;;;20.23;36.48;97760.16;1721115;80;21573;-9
2021/01/30 08:43:47;;;;;;;4.25;3.85;;;;;;;20.26;36.42;97758.51;1747103;79;21211;-10
2021/01/30 08:46:37;;;;;;;4.25;3.85;;;;;;;20.28;36.35;97757.84;1760242;79;21190;-10
2021/01/30 08:49:16;;;;;;;4.50;4.00;;;;;;;20.32;36.32;97757.03;1755698;80;21108;-10
2021/01/30 08:51:46;;;;;;;4.47;4.08;;;;;;;20.35;36.26;97755.38;1760180;80;21142;-11
2021/01/30 08:54:37;;;;;;;4.60;4.03;;;;;;;20.37;36.24;97762.73;1736184;80;21221;-9
2021/01/30 08:57:08;;;;;;;4.50;4.05;;;;;;;20.38;36.17;97757.23;1774822;79;21105;-10
2021/01/30 08:59:49;;;;;;;4.20;3.80;;;;;;;20.43;36.14;97759.95;1737227;79;21080;-11
2021/01/30 09:02:37;;;;;;;4.70;4.20;;;;;;;20.44;36.07;97759.76;1748839;79;21969;-10
2021/01/30 09:05:23;;;;;;;4.10;3.60;;;;;;;20.46;36.04;97754.26;1740106;79;21912;-11
2021/01/30 09:08:12;;;;;;;4.80;4.15;;;;;;;20.48;36.03;97761.64;1754403;79;21172;-11
2021/01/30 09:10:41;;;;;;;5.87;4.42;;;;;;;20.48;35.99;97755.79;1758213;79;21690;-11
2021/01/30 09:13:15;;;;;;;5.03;3.90;;;;;;;20.50;35.98;97754.30;1768870;80;21226;-9
2021/01/30 09:15:49;;;;;;;4.40;4.05;;;;;;;20.50;35.98;97751.63;1748821;79;25975;-8
2021/01/30 09:18:34;;;;;;;4.58;4.03;;;;;;;20.51;35.93;97750.13;1749031;79;21162;-8
2021/01/30 09:21:40;;;;;;;4.50;4.10;;;;;;;20.53;35.91;97753.48;1738080;80;21163;-8
2021/01/30 09:24:48;;;;;;;5.08;4.10;;;;;;;20.54;35.88;97748.96;1738160;79;21612;-9
2021/01/30 09:27:16;;;;;;;4.80;4.30;;;;;;;20.55;35.87;97745.30;1735962;80;21187;-11
2021/01/30 09:29:46;;;;;;;4.72;4.30;;;;;;;20.56;35.84;97740.28;1779203;79;22436;-11
2021/01/30 09:32:17;;;;;;;5.87;4.75;;;;;;;20.55;35.83;97739.95;1727722;80;21217;-11
2021/01/30 09:34:56;;;;;;;4.87;4.37;;;;;;;20.55;35.86;97738.12;1760949;80;21210;-10
2021/01/30 09:37:39;;;;;;;4.87;4.40;;;;;;;20.56;35.83;97738.47;1774214;79;21190;-9
2021/01/30 09:40:12;;;;;;;4.87;4.22;;;;;;;20.57;35.82;97735.28;1753247;78;21160;-10
2021/01/30 09:42:40;;;;;;;4.60;4.20;;;;;;;20.57;35.82;97735.28;1742775;80;22150;-10
2021/01/30 09:45:13;;;;;;;5.50;4.50;;;;;;;20.55;35.82;97720.75;1735226;79;21130;-10
2021/01/30 09:47:45;;;;;;;4.67;4.20;;;;;;;20.56;35.84;97721.58;1755416;79;21158;-11
2021/01/30 09:50:14;;;;;;;4.90;4.42;;;;;;;20.54;35.83;97717.76;1788164;79;21125;-11
2021/01/30 09:53:07;;;;;;;4.75;4.03;;;;;;;20.54;35.83;97711.55;1762491;79;21172;-10
2021/01/30 09:55:36;;;;;;;4.12;3.77;;;;;;;20.55;35.84;97702.56;1760035;78;21185;-10
2021/01/30 09:58:13;;;;;;;4.30;3.90;;;;;;;20.54;35.86;97700.87;1785021;79;21187;-8
2021/01/30 10:00:44;;;;;;;4.10;3.72;;;;;;;20.55;35.84;97699.88;1750909;79;21162;-8
2021/01/30 10:03:24;;;;;;;5.05;4.22;;;;;;;20.54;35.86;97696.39;1777860;79;21773;-8
2021/01/30 10:05:53;;;;;;;5.17;4.00;;;;;;;20.54;35.86;97691.05;1737574;79;21200;-9
2021/01/30 10:08:32;;;;;;;5.03;4.53;;;;;;;20.55;35.83;97690.53;1764188;80;22176;-8
2021/01/30 10:11:18;;;;;;;5.45;4.42;;;;;;;20.54;35.83;97685.70;1743095;79;21204;-9
2021/01/30 10:13:58;;;;;;;4.62;4.10;;;;;;;20.55;35.82;97681.19;1757657;79;21138;-10
2021/01/30 10:16:26;;;;;;;5.40;3.85;;;;;;;20.56;35.83;97682.84;1757254;79;21105;-9
2021/01/30 10:19:24;;;;;;;4.53;4.12;;;;;;;20.56;35.81;97674.82;1779936;79;21138;-10
2021/01/30 10:21:53;;;;;;;4.90;4.40;;;;;;;20.56;35.82;97673.01;1752423;79;21204;-9
2021/01/30 10:24:26;;;;;;;5.03;4.40;;;;;;;20.56;35.80;97661.47;1746661;80;21204;-9
2021/01/30 10:26:59;;;;;;;4.97;4.47;;;;;;;20.56;35.81;97657.45;1782580;79;21109;-9
2021/01/30 10:29:26;;;;;;;5.65;4.05;;;;;;;20.55;35.80;97657.97;1756601;80;21122;-9
2021/01/30 10:32:05;;;;;;;4.90;4.50;;;;;;;20.56;35.82;97656.98;1749888;80;21135;-9
2021/01/30 10:34:54;;;;;;;5.30;4.22;;;;;;;20.56;35.80;97652.97;1747453;79;22036;-9
2021/01/30 10:37:38;;;;;;;4.78;4.37;;;;;;;20.56;35.80;97652.11;1758288;79;21659;-9
2021/01/30 10:40:14;;;;;;;4.42;4.03;;;;;;;20.57;35.81;97647.12;1744578;79;21147;-9
2021/01/30 10:42:41;;;;;;;4.60;4.20;;;;;;;20.57;35.79;97647.12;1780383;79;21228;-9
2021/01/30 10:45:22;;;;;;;4.35;3.98;;;;;;;20.58;35.80;97642.12;1757498;77;21226;-9
2021/01/30 10:47:54;;;;;;;4.40;4.00;;;;;;;20.58;35.79;97643.45;1746599;80;22150;-9
2021/01/30 10:50:31;;;;;;;4.90;4.37;;;;;;;20.59;35.77;97631.75;1769619;79;21554;-9
2021/01/30 10:53:25;;;;;;;5.83;4.30;;;;;;;20.60;35.73;97630.77;1780238;80;21198;-9
2021/01/30 10:55:53;;;;;;;4.42;4.03;;;;;;;20.60;35.76;97622.23;1757382;79;21562;-9
2021/01/30 10:58:28;;;;;;;4.83;4.33;;;;;;;20.62;35.75;97622.08;1737278;80;21163;-9
2021/01/30 11:01:10;;;;;;;4.75;4.35;;;;;;;20.62;35.73;97611.91;1776039;79;22238;-9
2021/01/30 11:03:51;;;;;;;4.55;4.08;;;;;;;20.63;35.71;97606.43;1756468;79;21190;-9
2021/01/30 11:06:29;;;;;;;4.30;3.87;;;;;;;20.64;35.69;97601.40;1738998;79;21223;-9
2021/01/30 11:09:08;;;;;;;4.90;4.40;;;;;;;20.65;35.65;97600.41;1763726;79;21150;-9
2021/01/30 11:11:36;;;;;;;5.90;4.22;;;;;;;20.67;35.61;97594.40;1783271;79;21172;-9
2021/01/30 11:14:27;;;;;;;4.75;4.35;;;;;;;20.67;35.62;97583.71;1763840;79;22080;-9
2021/01/30 11:16:56;;;;;;;4.92;4.37;;;;;;;20.69;35.59;97579.03;1750108;80;21151;-8
2021/01/30 11:19:38;;;;;;;5.28;4.47;;;;;;;20.69;35.58;97573.69;1728331;80;21236;-9
2021/01/30 11:22:24;;;;;;;5.33;4.22;;;;;;;20.70;35.58;97573.20;1719191;80;21511;-9
2021/01/30 11:25:12;;;;;;;4.55;3.95;;;;;;;20.70;35.58;97567.35;1745099;79;21147;-9
2021/01/30 11:27:45;;;;;;;4.85;4.25;;;;;;;20.69;35.58;97552.31;1761111;80;22120;-9
2021/01/30 11:30:25;;;;;;;4.57;4.17;;;;;;;20.69;35.55;97549.63;1780802;79;21161;-9
2021/01/30 11:33:11;;;;;;;4.85;4.15;;;;;;;20.70;35.53;97539.30;1766276;80;21198;-9
2021/01/30 11:35:43;;;;;;;4.97;4.42;;;;;;;20.70;35.52;97535.28;1731967;80;21541;-8
2021/01/30 11:38:21;;;;;;;4.00;3.70;;;;;;;20.71;35.51;97531.63;1797951;79;21119;-8
2021/01/30 11:40:58;;;;;;;4.67;4.28;;;;;;;20.76;35.50;97531.96;1824696;76;21903;0
2021/01/30 11:43:26;;;;;;;5.10;4.20;;;;;;;20.71;35.51;97526.28;1768024;79;21016;-9
2021/01/30 11:45:54;;;;;;;4.60;4.17;;;;;;;20.71;35.51;97520.94;1749114;79;21147;-9
2021/01/30 11:48:22;;;;;;;4.60;4.00;;;;;;;20.71;35.51;97521.41;1751157;80;21052;-9
2021/01/30 11:50:51;;;;;;;4.47;4.08;;;;;;;20.71;35.53;97514.73;1778274;79;21212;-9
2021/01/30 11:53:26;;;;;;;4.62;4.22;;;;;;;20.69;35.55;97512.22;1757453;80;21166;-9
2021/01/30 11:55:54;;;;;;;5.42;4.33;;;;;;;20.68;35.58;97505.23;1712847;81;21570;-9
2021/01/30 11:58:25;;;;;;;4.85;4.35;;;;;;;20.67;35.57;97500.05;1698098;82;21169;-9
2021/01/30 12:00:53;;;;;;;6.95;5.42;;;;;;;20.67;35.60;97493.37;1732004;82;21235;-8
2021/01/30 12:03:28;;;;;;;5.05;4.35;;;;;;;20.64;35.64;97490.52;1743471;80;21134;-9
2021/01/30 12:05:57;;;;;;;4.40;4.00;;;;;;;20.63;35.68;97486.19;1775490;80;21575;-9
2021/01/30 12:08:25;;;;;;;4.60;4.20;;;;;;;20.64;35.65;97492.36;1738091;81;21228;-9
2021/01/30 12:10:54;;;;;;;4.90;4.15;;;;;;;20.65;35.65;97490.03;1739845;81;21164;-10
2021/01/30 12:13:22;;;;;;;4.55;3.98;;;;;;;20.65;35.67;97489.52;1745062;80;21179;-9
2021/01/30 12:15:50;;;;;;;4.58;4.17;;;;;;;20.64;35.68;97481.16;1781173;79;21190;-8
2021/01/30 12:18:18;;;;;;;4.40;4.00;;;;;;;20.63;35.69;97482.18;1757177;79;21179;-8
2021/01/30 12:20:49;;;;;;;5.95;4.17;;;;;;;20.64;35.69;97479.83;1741222;79;21068;-8
2021/01/30 12:23:20;;;;;;;5.23;4.03;;;;;;;20.63;35.69;97474.16;1755640;79;21214;-8
2021/01/30 12:25:47;;;;;;;4.87;3.92;;;;;;;20.63;35.67;97480.84;1768098;80;21163;-8
2021/01/30 12:28:27;;;;;;;4.37;3.98;;;;;;;20.63;35.70;97471.97;1771439;77;21140;-8
2021/01/30 12:30:55;;;;;;;4.87;4.28;;;;;;;20.63;35.70;97470.64;1696832;82;21182;-8
2021/01/30 12:33:22;;;;;;;4.62;4.20;;;;;;;20.62;35.71;97473.79;1730088;79;21155;-9
2021/01/30 12:35:50;;;;;;;4.00;3.62;;;;;;;20.61;35.73;97474.81;1739862;81;21218;-9
2021/01/30 12:38:17;;;;;;;4.62;4.10;;;;;;;20.60;35.74;97466.45;1738989;81;21148;-11